Time;durP1;ratioP1;P1;durP2;ratioP2;P2;SDS_P1;SDS_P2;PMS_P1;PMS_P2;Temp;Humidity;BMP_temperature;BMP_pressure;BME280_temperature;BME280_humidity;BME280_pressure;Samples;Min_cycle;Max_cycle;Signal;HPM_P1;HPM_P2
2023/05/06 00:02:09;;;;;;;4.73;2.13;;;;;;;;;;4992944;28;20430;-90
2023/05/06 00:04:35;;;;;;;3.20;2.47;;;;;;;;;;4994187;28;20446;-90
2023/05/06 00:07:01;;;;;;;4.53;2.70;;;;;;;;;;4987908;28;20863;-89
2023/05/06 00:09:27;;;;;;;6.43;2.43;;;;;;;;;;4993218;28;20451;-90
2023/05/06 00:11:54;;;;;;;2.97;2.10;;;;;;;;;;4991002;28;20425;-90
2023/05/06 00:14:20;;;;;;;2.83;2.43;;;;;;;;;;4991240;28;20408;-90
2023/05/06 00:16:46;;;;;;;3.07;2.40;;;;;;;;;;4992119;28;20465;-90
2023/05/06 00:19:12;;;;;;;3.23;2.70;;;;;;;;;;4992754;28;20425;-90
2023/05/06 00:21:38;;;;;;;5.97;2.40;;;;;;;;;;4992549;28;20414;-89
2023/05/06 00:24:05;;;;;;;5.60;3.20;;;;;;;;;;4992682;28;20441;-90
2023/05/06 00:26:31;;;;;;;3.50;2.43;;;;;;;;;;4990446;28;20501;-90
2023/05/06 00:28:57;;;;;;;4.83;2.30;;;;;;;;;;4993433;28;20414;-89
2023/05/06 00:31:23;;;;;;;2.97;2.67;;;;;;;;;;4993213;28;20460;-90
2023/05/06 00:33:49;;;;;;;3.17;2.40;;;;;;;;;;4992948;28;20441;-91
2023/05/06 00:36:15;;;;;;;2.63;2.33;;;;;;;;;;4991340;28;20461;-90
2023/05/06 00:38:41;;;;;;;4.60;2.33;;;;;;;;;;4992117;28;20418;-90
2023/05/06 00:41:07;;;;;;;7.43;3.10;;;;;;;;;;4991270;28;20824;-90
2023/05/06 00:43:33;;;;;;;2.73;2.33;;;;;;;;;;4989448;28;20504;-91
2023/05/06 00:45:59;;;;;;;3.67;2.83;;;;;;;;;;4991817;28;20438;-91
2023/05/06 00:48:25;;;;;;;4.23;2.77;;;;;;;;;;4991002;28;20480;-90
2023/05/06 00:50:51;;;;;;;2.70;2.37;;;;;;;;;;4988747;28;20566;-88
2023/05/06 00:53:19;;;;;;;4.00;2.40;;;;;;;;;;4990826;28;20422;-90
2023/05/06 00:55:45;;;;;;;3.40;2.63;;;;;;;;;;4989993;28;20438;-90
2023/05/06 00:58:11;;;;;;;4.77;2.20;;;;;;;;;;4988557;28;20438;-89
2023/05/06 01:00:37;;;;;;;3.80;2.33;;;;;;;;;;4992655;28;20422;-89
2023/05/06 01:03:03;;;;;;;2.80;2.27;;;;;;;;;;4990161;28;20901;-90
2023/05/06 01:05:33;;;;;;;2.67;2.47;;;;;;;;;;4990396;28;20445;-89
2023/05/06 01:08:11;;;;;;;3.23;2.40;;;;;;;;;;4988514;28;20556;-90
2023/05/06 01:10:54;;;;;;;2.40;2.20;;;;;;;;;;4992025;28;20449;-90
2023/05/06 01:13:29;;;;;;;2.70;2.10;;;;;;;;;;4990074;28;20424;-90
2023/05/06 01:15:56;;;;;;;4.17;2.70;;;;;;;;;;4990638;28;20436;-90
2023/05/06 01:18:22;;;;;;;2.77;2.33;;;;;;;;;;4989669;28;20434;-90
2023/05/06 01:20:49;;;;;;;2.63;2.07;;;;;;;;;;4989755;28;20548;-89
2023/05/06 01:23:15;;;;;;;7.00;3.20;;;;;;;;;;4989508;28;20529;-89
2023/05/06 01:25:41;;;;;;;2.40;2.20;;;;;;;;;;4989343;28;20469;-89
2023/05/06 01:28:10;;;;;;;2.70;2.20;;;;;;;;;;4990083;28;20444;-90
2023/05/06 01:30:56;;;;;;;3.40;2.67;;;;;;;;;;4991187;28;20462;-90
2023/05/06 01:33:28;;;;;;;3.10;1.93;;;;;;;;;;4967355;28;20415;-90
2023/05/06 01:35:57;;;;;;;2.73;2.53;;;;;;;;;;4974889;28;20481;-90
2023/05/06 01:38:31;;;;;;;3.33;3.03;;;;;;;;;;4981358;28;21103;-90
2023/05/06 01:40:57;;;;;;;2.47;2.17;;;;;;;;;;4988819;28;20492;-90
2023/05/06 01:43:23;;;;;;;2.33;2.13;;;;;;;;;;4989029;28;20430;-90
2023/05/06 01:45:52;;;;;;;3.50;2.40;;;;;;;;;;4989822;28;20452;-90
2023/05/06 01:48:19;;;;;;;2.07;1.73;;;;;;;;;;4991380;28;20925;-90
2023/05/06 01:50:45;;;;;;;3.00;2.53;;;;;;;;;;4993039;28;20464;-88
2023/05/06 01:53:11;;;;;;;3.37;2.40;;;;;;;;;;4993633;28;20421;-90
2023/05/06 01:55:37;;;;;;;5.87;2.67;;;;;;;;;;4998541;28;20519;-91
2023/05/06 01:58:03;;;;;;;3.87;2.20;;;;;;;;;;4993800;28;20499;-90
2023/05/06 02:00:29;;;;;;;2.93;2.33;;;;;;;;;;4993393;28;20442;-91
2023/05/06 02:02:55;;;;;;;3.10;2.57;;;;;;;;;;4992878;28;20440;-90
2023/05/06 02:05:21;;;;;;;2.40;2.13;;;;;;;;;;4995051;28;20501;-91
2023/05/06 02:07:47;;;;;;;4.53;2.37;;;;;;;;;;4994221;28;20420;-90
2023/05/06 02:10:13;;;;;;;6.43;2.17;;;;;;;;;;4993981;28;20881;-90
2023/05/06 02:12:39;;;;;;;2.77;2.37;;;;;;;;;;4992933;28;20541;-90
2023/05/06 02:15:06;;;;;;;4.20;2.70;;;;;;;;;;4993354;28;20788;-90
2023/05/06 02:17:34;;;;;;;4.77;2.33;;;;;;;;;;4993869;28;20445;-90
2023/05/06 02:20:00;;;;;;;2.67;2.47;;;;;;;;;;4993539;28;20433;-89
2023/05/06 02:22:26;;;;;;;4.43;2.83;;;;;;;;;;4993167;28;20833;-89
2023/05/06 02:24:52;;;;;;;3.43;2.07;;;;;;;;;;5001405;28;20441;-90
2023/05/06 02:27:18;;;;;;;2.50;2.13;;;;;;;;;;4994843;28;20484;-91
2023/05/06 02:29:44;;;;;;;3.20;2.43;;;;;;;;;;4992531;28;20973;-90
2023/05/06 02:32:10;;;;;;;6.30;2.70;;;;;;;;;;4987165;28;20442;-90
2023/05/06 02:34:36;;;;;;;2.90;2.40;;;;;;;;;;4993950;28;21001;-90
2023/05/06 02:37:02;;;;;;;2.90;2.67;;;;;;;;;;4994065;28;20492;-89
2023/05/06 02:39:28;;;;;;;8.27;2.70;;;;;;;;;;4981641;28;20430;-90
2023/05/06 02:41:54;;;;;;;4.20;3.33;;;;;;;;;;4984840;28;20448;-91
2023/05/06 02:44:20;;;;;;;3.60;2.70;;;;;;;;;;4998082;28;20510;-92
2023/05/06 02:46:46;;;;;;;3.80;3.40;;;;;;;;;;4997976;28;20454;-88
2023/05/06 02:49:12;;;;;;;3.80;2.77;;;;;;;;;;4991965;28;21161;-90
2023/05/06 02:51:38;;;;;;;4.77;3.70;;;;;;;;;;4980441;28;20450;-90
2023/05/06 02:54:05;;;;;;;4.10;3.60;;;;;;;;;;4995892;28;20801;-90
2023/05/06 02:56:31;;;;;;;6.60;3.40;;;;;;;;;;4993476;28;20436;-90
2023/05/06 02:58:57;;;;;;;4.00;3.23;;;;;;;;;;4992266;28;20494;-91
2023/05/06 03:01:23;;;;;;;5.37;3.37;;;;;;;;;;4992749;28;20536;-90
2023/05/06 03:03:49;;;;;;;6.97;3.10;;;;;;;;;;4991773;28;21002;-90
2023/05/06 03:06:15;;;;;;;3.30;2.73;;;;;;;;;;4992691;28;20438;-89
2023/05/06 03:08:41;;;;;;;3.10;2.60;;;;;;;;;;4975574;28;20523;-90
2023/05/06 03:11:07;;;;;;;4.00;3.63;;;;;;;;;;4979551;28;21063;-90
2023/05/06 03:13:33;;;;;;;5.40;3.20;;;;;;;;;;4992266;28;20436;-89
2023/05/06 03:15:59;;;;;;;3.60;3.30;;;;;;;;;;4990038;28;20485;-90
2023/05/06 03:18:25;;;;;;;5.90;5.00;;;;;;;;;;4993763;28;20518;-90
2023/05/06 03:20:51;;;;;;;6.53;3.33;;;;;;;;;;4996369;28;20485;-90
2023/05/06 03:23:17;;;;;;;4.27;3.40;;;;;;;;;;4988242;28;20504;-89
2023/05/06 03:25:43;;;;;;;5.00;2.83;;;;;;;;;;4991292;28;20533;-90
2023/05/06 03:28:10;;;;;;;4.47;3.40;;;;;;;;;;4992996;28;20425;-90
2023/05/06 03:30:36;;;;;;;5.73;3.57;;;;;;;;;;4990508;28;20465;-91
2023/05/06 03:33:02;;;;;;;3.30;3.00;;;;;;;;;;4983312;28;20520;-90
2023/05/06 03:35:31;;;;;;;3.63;3.33;;;;;;;;;;4989787;28;20449;-90
2023/05/06 03:37:57;;;;;;;5.83;3.20;;;;;;;;;;4993616;28;20932;-90
2023/05/06 03:40:23;;;;;;;4.90;3.57;;;;;;;;;;4991318;28;20458;-89
2023/05/06 03:42:49;;;;;;;4.17;3.60;;;;;;;;;;4983083;28;20665;-90
2023/05/06 03:45:15;;;;;;;4.03;3.67;;;;;;;;;;4995268;28;20434;-90
2023/05/06 03:47:41;;;;;;;4.63;3.43;;;;;;;;;;4992143;28;20430;-89
2023/05/06 03:50:07;;;;;;;4.83;3.37;;;;;;;;;;4987962;28;20466;-89
2023/05/06 03:52:33;;;;;;;4.30;3.60;;;;;;;;;;4991732;28;20448;-90
2023/05/06 03:54:59;;;;;;;5.10;3.13;;;;;;;;;;4981234;28;20522;-90
2023/05/06 03:57:25;;;;;;;4.17;3.77;;;;;;;;;;4993168;28;20482;-89
2023/05/06 03:59:51;;;;;;;4.27;3.33;;;;;;;;;;4990972;28;20477;-89
2023/05/06 04:02:17;;;;;;;2.87;2.50;;;;;;;;;;4991432;28;20434;-90
2023/05/06 04:04:43;;;;;;;8.80;3.50;;;;;;;;;;4990990;28;20449;-89
2023/05/06 04:07:09;;;;;;;4.10;2.80;;;;;;;;;;4992908;28;20542;-89
2023/05/06 04:09:35;;;;;;;4.43;3.20;;;;;;;;;;4991224;28;20551;-89
2023/05/06 04:12:02;;;;;;;4.00;3.60;;;;;;;;;;4993760;28;20941;-89
2023/05/06 04:14:28;;;;;;;5.53;3.60;;;;;;;;;;4995011;28;20816;-90
2023/05/06 04:16:54;;;;;;;3.70;3.37;;;;;;;;;;4992233;28;20460;-89
2023/05/06 04:19:20;;;;;;;4.53;3.30;;;;;;;;;;4991257;28;20426;-89
2023/05/06 04:21:46;;;;;;;6.07;3.70;;;;;;;;;;4989149;28;20996;-90
2023/05/06 04:24:14;;;;;;;5.67;3.20;;;;;;;;;;4989158;28;20422;-89
2023/05/06 04:26:40;;;;;;;3.30;3.00;;;;;;;;;;4990347;28;20433;-89
2023/05/06 04:29:06;;;;;;;7.67;3.50;;;;;;;;;;4982602;28;20462;-89
2023/05/06 04:31:33;;;;;;;4.90;3.27;;;;;;;;;;4998396;28;21007;-89
2023/05/06 04:34:00;;;;;;;5.17;3.80;;;;;;;;;;4991313;28;20434;-89
2023/05/06 04:36:26;;;;;;;3.70;3.40;;;;;;;;;;4991574;28;20422;-90
2023/05/06 04:38:52;;;;;;;5.50;4.17;;;;;;;;;;4988684;28;20818;-89
2023/05/06 04:41:19;;;;;;;6.00;3.93;;;;;;;;;;4991244;28;20425;-90
2023/05/06 04:43:45;;;;;;;6.00;4.43;;;;;;;;;;4991589;28;20469;-90
2023/05/06 04:46:11;;;;;;;4.47;3.50;;;;;;;;;;4988604;28;20914;-90
2023/05/06 04:48:37;;;;;;;6.17;4.30;;;;;;;;;;4991996;28;20514;-90
2023/05/06 04:51:04;;;;;;;4.37;3.60;;;;;;;;;;4991380;28;21024;-89
2023/05/06 04:53:30;;;;;;;7.60;3.63;;;;;;;;;;4992006;28;20453;-89
2023/05/06 04:55:56;;;;;;;6.97;3.80;;;;;;;;;;4990112;28;20434;-89
2023/05/06 04:58:22;;;;;;;6.77;4.10;;;;;;;;;;4991679;28;20448;-89
2023/05/06 05:00:48;;;;;;;6.17;4.23;;;;;;;;;;4991487;28;20413;-90
2023/05/06 05:03:14;;;;;;;4.73;3.60;;;;;;;;;;4991829;28;20440;-90
2023/05/06 05:05:40;;;;;;;5.53;3.80;;;;;;;;;;4989884;28;21311;-90
2023/05/06 05:08:06;;;;;;;5.63;3.73;;;;;;;;;;4991974;28;20433;-90
2023/05/06 05:10:32;;;;;;;5.90;3.60;;;;;;;;;;4990314;28;20456;-90
2023/05/06 05:12:58;;;;;;;5.20;4.13;;;;;;;;;;4990941;28;20933;-90
2023/05/06 05:15:24;;;;;;;7.80;4.53;;;;;;;;;;4990363;28;20475;-90
2023/05/06 05:17:50;;;;;;;5.03;4.47;;;;;;;;;;4992445;28;20425;-90
2023/05/06 05:20:16;;;;;;;5.27;3.97;;;;;;;;;;4975070;28;20457;-89
2023/05/06 05:22:42;;;;;;;4.93;4.20;;;;;;;;;;4999502;28;20803;-88
2023/05/06 05:25:08;;;;;;;5.57;4.30;;;;;;;;;;4992413;28;20432;-89
2023/05/06 05:27:35;;;;;;;5.60;4.37;;;;;;;;;;4995833;28;20477;-89
2023/05/06 05:30:01;;;;;;;4.10;3.60;;;;;;;;;;4990665;28;20469;-89
2023/05/06 05:32:27;;;;;;;7.80;3.97;;;;;;;;;;4994544;28;20469;-92
2023/05/06 05:34:53;;;;;;;6.80;4.20;;;;;;;;;;4996071;28;20457;-91
2023/05/06 05:37:19;;;;;;;5.57;4.17;;;;;;;;;;4995042;28;20498;-90
2023/05/06 05:39:45;;;;;;;4.00;3.60;;;;;;;;;;4993727;28;20888;-90
2023/05/06 05:42:11;;;;;;;5.37;3.90;;;;;;;;;;4991021;28;20430;-89
2023/05/06 05:44:37;;;;;;;6.50;4.30;;;;;;;;;;5000927;28;20464;-90
2023/05/06 05:47:03;;;;;;;4.10;3.37;;;;;;;;;;5011502;28;20972;-90
2023/05/06 05:49:30;;;;;;;3.57;3.00;;;;;;;;;;4994215;28;20790;-90
2023/05/06 05:51:56;;;;;;;5.73;3.73;;;;;;;;;;4988474;28;20434;-90
2023/05/06 05:54:22;;;;;;;4.23;3.47;;;;;;;;;;4995000;28;20426;-89
2023/05/06 05:56:49;;;;;;;3.70;2.90;;;;;;;;;;4989403;28;20884;-89
2023/05/06 05:59:15;;;;;;;3.53;2.87;;;;;;;;;;4988226;28;20956;-90
2023/05/06 06:01:41;;;;;;;5.40;2.93;;;;;;;;;;4976545;28;20451;-90
2023/05/06 06:04:07;;;;;;;3.57;2.47;;;;;;;;;;4990428;28;20456;-89
2023/05/06 06:06:33;;;;;;;3.83;2.50;;;;;;;;;;4994313;28;20429;-88
2023/05/06 06:08:59;;;;;;;3.87;2.90;;;;;;;;;;4993946;28;20540;-88
2023/05/06 06:11:26;;;;;;;4.00;2.70;;;;;;;;;;4988482;28;20852;-89
2023/05/06 06:13:52;;;;;;;6.30;3.17;;;;;;;;;;5000608;28;20421;-89
2023/05/06 06:16:18;;;;;;;3.57;2.00;;;;;;;;;;4994221;28;20441;-89
2023/05/06 06:18:44;;;;;;;9.77;3.33;;;;;;;;;;4978271;28;20457;-90
2023/05/06 06:21:10;;;;;;;3.13;2.00;;;;;;;;;;4996559;28;20444;-89
2023/05/06 06:23:36;;;;;;;3.13;1.67;;;;;;;;;;4996523;28;20449;-88
2023/05/06 06:26:05;;;;;;;1.80;1.60;;;;;;;;;;4989200;28;20445;-88
2023/05/06 06:28:31;;;;;;;6.93;1.67;;;;;;;;;;4998043;28;20533;-87
2023/05/06 06:30:57;;;;;;;2.00;1.73;;;;;;;;;;4993897;28;20465;-88
2023/05/06 06:33:23;;;;;;;2.87;1.70;;;;;;;;;;4993925;28;20500;-88
2023/05/06 06:35:49;;;;;;;3.80;1.97;;;;;;;;;;4992113;28;20433;-89
2023/05/06 06:38:15;;;;;;;3.90;1.80;;;;;;;;;;4993627;28;20532;-89
2023/05/06 06:40:41;;;;;;;2.93;1.80;;;;;;;;;;4993194;28;20433;-88
2023/05/06 06:43:07;;;;;;;5.40;1.90;;;;;;;;;;4993864;28;20441;-88
2023/05/06 06:45:33;;;;;;;3.93;2.10;;;;;;;;;;4993388;28;20428;-89
2023/05/06 06:47:59;;;;;;;2.07;1.40;;;;;;;;;;4976566;28;20787;-89
2023/05/06 06:50:25;;;;;;;4.53;2.00;;;;;;;;;;4994860;28;20460;-88
2023/05/06 06:52:51;;;;;;;1.90;1.40;;;;;;;;;;4995480;28;20426;-88
2023/05/06 06:55:17;;;;;;;1.67;1.30;;;;;;;;;;4992155;28;20425;-88
2023/05/06 06:57:43;;;;;;;3.80;1.60;;;;;;;;;;5011897;28;20437;-89
2023/05/06 07:00:10;;;;;;;3.93;1.37;;;;;;;;;;5014916;28;20516;-88
2023/05/06 07:02:38;;;;;;;2.37;1.60;;;;;;;;;;5002345;28;20449;-87
2023/05/06 07:05:04;;;;;;;2.23;2.03;;;;;;;;;;5011109;28;20991;-88
2023/05/06 07:07:30;;;;;;;3.40;1.70;;;;;;;;;;5010158;28;20444;-88
2023/05/06 07:09:56;;;;;;;2.13;1.57;;;;;;;;;;4993054;28;20477;-89
2023/05/06 07:12:23;;;;;;;3.23;1.57;;;;;;;;;;5006225;28;20437;-90
2023/05/06 07:14:49;;;;;;;2.83;1.80;;;;;;;;;;5010925;28;20580;-89
2023/05/06 07:17:16;;;;;;;3.33;1.83;;;;;;;;;;5009436;28;20437;-89
2023/05/06 07:19:42;;;;;;;2.20;1.70;;;;;;;;;;4996159;28;20421;-89
2023/05/06 07:22:08;;;;;;;2.90;1.00;;;;;;;;;;4994700;28;20484;-90
2023/05/06 07:24:34;;;;;;;1.93;1.20;;;;;;;;;;5010382;28;21965;-90
2023/05/06 07:27:01;;;;;;;2.20;1.50;;;;;;;;;;5007757;28;20447;-89
2023/05/06 07:29:27;;;;;;;2.60;1.57;;;;;;;;;;4996860;28;21024;-91
2023/05/06 07:31:53;;;;;;;2.23;1.53;;;;;;;;;;4992745;28;20457;-89
2023/05/06 07:34:19;;;;;;;2.77;1.97;;;;;;;;;;4989402;28;20434;-89
2023/05/06 07:36:45;;;;;;;2.50;1.47;;;;;;;;;;4975986;28;20438;-90
2023/05/06 07:39:12;;;;;;;3.83;1.80;;;;;;;;;;4991501;28;20457;-89
2023/05/06 07:41:38;;;;;;;3.50;1.87;;;;;;;;;;4991163;28;20673;-89
2023/05/06 07:44:04;;;;;;;1.80;1.10;;;;;;;;;;4990827;28;21066;-89
2023/05/06 07:46:30;;;;;;;2.03;1.40;;;;;;;;;;4989781;28;20448;-90
2023/05/06 07:48:56;;;;;;;1.97;1.23;;;;;;;;;;4991076;28;20521;-90
2023/05/06 07:51:22;;;;;;;2.57;1.63;;;;;;;;;;4992725;28;20471;-87
2023/05/06 07:53:48;;;;;;;3.53;1.60;;;;;;;;;;4985838;28;20445;-90
2023/05/06 07:56:14;;;;;;;2.63;1.43;;;;;;;;;;4990336;28;20469;-91
2023/05/06 07:58:40;;;;;;;2.53;1.70;;;;;;;;;;4977468;28;20449;-88
2023/05/06 08:01:06;;;;;;;2.20;1.60;;;;;;;;;;4995317;28;20527;-89
2023/05/06 08:03:32;;;;;;;1.70;1.60;;;;;;;;;;4963173;28;20469;-87
2023/05/06 08:05:59;;;;;;;3.00;1.40;;;;;;;;;;4992059;28;20442;-91
2023/05/06 08:08:26;;;;;;;1.80;1.40;;;;;;;;;;4978285;28;20477;-89
2023/05/06 08:10:53;;;;;;;4.03;1.87;;;;;;;;;;4988442;28;20478;-88
2023/05/06 08:13:19;;;;;;;2.93;1.50;;;;;;;;;;4990212;28;21177;-87
2023/05/06 08:15:45;;;;;;;2.37;1.20;;;;;;;;;;4992119;28;20438;-87
2023/05/06 08:18:12;;;;;;;2.33;1.87;;;;;;;;;;4980452;28;21012;-91
2023/05/06 08:20:38;;;;;;;3.07;1.70;;;;;;;;;;4990475;28;20497;-88
2023/05/06 08:23:04;;;;;;;2.37;1.80;;;;;;;;;;4990941;28;20430;-89
2023/05/06 08:25:30;;;;;;;1.90;1.40;;;;;;;;;;4994651;28;20430;-88
2023/05/06 08:27:56;;;;;;;2.20;1.30;;;;;;;;;;4967218;28;20522;-88
2023/05/06 08:30:22;;;;;;;2.60;1.70;;;;;;;;;;4957884;28;20469;-88
2023/05/06 08:32:48;;;;;;;3.60;1.80;;;;;;;;;;4957400;28;20443;-88
2023/05/06 08:35:14;;;;;;;1.70;1.20;;;;;;;;;;4957278;28;20435;-89
2023/05/06 08:37:40;;;;;;;2.57;1.20;;;;;;;;;;4957286;28;20435;-88
2023/05/06 08:40:28;;;;;;;2.20;1.30;;;;;;;;;;4961572;28;20454;-88
2023/05/06 08:42:54;;;;;;;3.73;1.80;;;;;;;;;;4947183;28;20434;-88
2023/05/06 08:45:20;;;;;;;3.03;2.23;;;;;;;;;;4959997;28;20646;-88
2023/05/06 08:47:47;;;;;;;3.00;1.73;;;;;;;;;;4959770;28;20565;-93
2023/05/06 08:50:13;;;;;;;3.83;2.33;;;;;;;;;;4959481;28;20578;-89
2023/05/06 08:52:39;;;;;;;2.20;2.00;;;;;;;;;;4963276;28;20438;-89
2023/05/06 08:55:05;;;;;;;2.20;1.67;;;;;;;;;;4956205;28;20430;-89
2023/05/06 08:57:32;;;;;;;2.53;1.70;;;;;;;;;;4964814;28;20439;-88
2023/05/06 08:59:58;;;;;;;1.87;1.20;;;;;;;;;;4972778;28;20442;-88
2023/05/06 09:02:24;;;;;;;1.90;1.40;;;;;;;;;;4990255;28;20417;-89
2023/05/06 09:04:51;;;;;;;4.13;2.00;;;;;;;;;;4980471;28;20461;-89
2023/05/06 09:07:17;;;;;;;2.10;1.60;;;;;;;;;;4989971;28;21186;-88
2023/05/06 09:09:43;;;;;;;2.77;1.80;;;;;;;;;;4991352;28;20458;-88
2023/05/06 09:12:10;;;;;;;3.23;2.03;;;;;;;;;;4990901;28;20448;-89
2023/05/06 09:14:36;;;;;;;2.50;2.00;;;;;;;;;;4987985;28;20434;-89
2023/05/06 09:17:03;;;;;;;2.40;1.90;;;;;;;;;;4990331;28;20522;-90
2023/05/06 09:19:32;;;;;;;2.10;1.70;;;;;;;;;;4990050;28;20426;-90
2023/05/06 09:21:58;;;;;;;1.63;1.43;;;;;;;;;;4990981;28;20545;-89
2023/05/06 09:24:24;;;;;;;3.00;2.10;;;;;;;;;;4988631;28;20529;-89
2023/05/06 09:26:54;;;;;;;1.93;1.73;;;;;;;;;;4978473;28;20484;-89
2023/05/06 09:29:20;;;;;;;2.10;1.67;;;;;;;;;;4991523;28;20429;-90
2023/05/06 09:31:46;;;;;;;2.93;2.23;;;;;;;;;;4988613;28;20464;-90
2023/05/06 09:34:13;;;;;;;4.47;2.40;;;;;;;;;;4975008;28;20533;-90
2023/05/06 09:36:39;;;;;;;2.33;1.83;;;;;;;;;;4990370;28;20438;-90
2023/05/06 09:39:05;;;;;;;4.80;1.97;;;;;;;;;;4992353;28;20537;-89
2023/05/06 09:41:32;;;;;;;2.90;1.60;;;;;;;;;;4969164;28;20460;-89
2023/05/06 09:43:58;;;;;;;2.33;1.73;;;;;;;;;;4990498;28;20421;-89
2023/05/06 09:46:27;;;;;;;3.13;2.07;;;;;;;;;;4988028;28;20473;-90
2023/05/06 09:49:01;;;;;;;2.80;1.53;;;;;;;;;;4990807;28;20615;-89
2023/05/06 09:51:31;;;;;;;5.23;2.20;;;;;;;;;;4996620;28;20458;-94
2023/05/06 09:53:57;;;;;;;2.63;1.90;;;;;;;;;;4990611;28;20500;-88
2023/05/06 09:56:24;;;;;;;3.57;1.93;;;;;;;;;;4989652;28;20470;-93
2023/05/06 09:58:52;;;;;;;3.17;1.77;;;;;;;;;;4988665;28;20516;-93
2023/05/06 10:01:18;;;;;;;2.83;1.60;;;;;;;;;;4988042;28;20433;-91
2023/05/06 10:03:44;;;;;;;1.60;1.40;;;;;;;;;;4999279;28;20441;-92
2023/05/06 10:06:11;;;;;;;2.10;1.70;;;;;;;;;;5004767;28;20433;-92
2023/05/06 10:08:37;;;;;;;2.90;2.10;;;;;;;;;;5003222;28;20469;-92
2023/05/06 10:11:05;;;;;;;1.63;1.17;;;;;;;;;;4984591;28;20545;-89
2023/05/06 10:13:31;;;;;;;2.97;1.70;;;;;;;;;;4997279;28;21241;-93
2023/05/06 10:15:57;;;;;;;1.93;1.43;;;;;;;;;;5000565;28;20445;-91
2023/05/06 10:18:53;;;;;;;2.00;1.57;;;;;;;;;;5004656;28;20406;-95
2023/05/06 10:24:36;;;;;;;2.13;1.70;;;;;;;;;;4968335;28;20418;-96
2023/05/06 10:30:18;;;;;;;4.67;1.77;;;;;;;;;;4939011;29;20513;-90
2023/05/06 10:32:44;;;;;;;3.97;1.60;;;;;;;;;;4957840;28;20431;-88
2023/05/06 10:35:12;;;;;;;3.00;1.70;;;;;;;;;;4938867;29;20499;-89
2023/05/06 10:37:38;;;;;;;2.03;1.70;;;;;;;;;;4939604;29;20419;-88
2023/05/06 10:40:04;;;;;;;3.20;1.83;;;;;;;;;;4954877;28;20554;-88
2023/05/06 10:42:34;;;;;;;2.33;2.13;;;;;;;;;;4941793;29;20447;-88
2023/05/06 10:45:03;;;;;;;6.00;2.37;;;;;;;;;;4955192;28;20520;-94
2023/05/06 10:47:48;;;;;;;3.23;1.80;;;;;;;;;;4938864;28;20448;-87
2023/05/06 10:50:21;;;;;;;3.03;1.87;;;;;;;;;;4953468;28;20505;-89
2023/05/06 10:52:47;;;;;;;2.30;1.77;;;;;;;;;;4980849;28;20500;-89
2023/05/06 10:55:34;;;;;;;8.63;2.87;;;;;;;;;;4976862;28;20437;-89
2023/05/06 10:58:21;;;;;;;2.47;1.60;;;;;;;;;;4989769;28;20456;-89
2023/05/06 11:00:53;;;;;;;2.20;1.67;;;;;;;;;;4988741;28;20572;-89
2023/05/06 11:03:25;;;;;;;2.10;1.80;;;;;;;;;;4993621;28;20441;-93
2023/05/06 11:05:51;;;;;;;3.80;2.00;;;;;;;;;;4988097;28;20448;-91
2023/05/06 11:08:35;;;;;;;3.73;2.20;;;;;;;;;;4999352;28;20438;-94
2023/05/06 11:11:03;;;;;;;6.47;4.00;;;;;;;;;;5000725;28;20470;-93
2023/05/06 11:13:38;;;;;;;3.43;2.50;;;;;;;;;;5003815;28;20442;-95
2023/05/06 11:16:04;;;;;;;2.97;2.53;;;;;;;;;;4992725;28;20520;-93
2023/05/06 11:18:32;;;;;;;3.03;1.80;;;;;;;;;;4995143;28;20449;-92
2023/05/06 11:21:01;;;;;;;4.00;2.30;;;;;;;;;;4987543;28;20434;-89
2023/05/06 11:23:42;;;;;;;3.33;2.27;;;;;;;;;;4977748;28;20448;-88
2023/05/06 11:26:09;;;;;;;4.50;1.90;;;;;;;;;;4994507;28;20418;-88
2023/05/06 11:28:35;;;;;;;3.93;2.10;;;;;;;;;;4991615;28;20485;-90
2023/05/06 11:31:01;;;;;;;4.23;1.93;;;;;;;;;;4991924;28;20494;-89
2023/05/06 11:33:34;;;;;;;3.33;1.90;;;;;;;;;;4996156;28;20422;-90
2023/05/06 11:36:03;;;;;;;2.73;2.20;;;;;;;;;;4995293;28;20410;-91
2023/05/06 11:38:42;;;;;;;3.03;2.23;;;;;;;;;;4995392;28;20429;-92
2023/05/06 11:41:08;;;;;;;2.23;1.83;;;;;;;;;;4990076;28;20440;-90
2023/05/06 11:43:34;;;;;;;2.40;2.03;;;;;;;;;;4992356;28;20434;-90
2023/05/06 11:46:00;;;;;;;4.07;2.27;;;;;;;;;;4992991;28;20426;-91
2023/05/06 11:48:26;;;;;;;2.87;2.00;;;;;;;;;;5002262;28;20426;-94
2023/05/06 11:50:53;;;;;;;3.53;2.30;;;;;;;;;;4993694;28;20485;-90
2023/05/06 11:53:35;;;;;;;2.53;1.83;;;;;;;;;;4997850;28;20434;-96
2023/05/06 12:06:34;;;;;;;6.30;2.30;;;;;;;;;;4958974;29;20471;-92
2023/05/06 12:09:01;;;;;;;2.73;2.10;;;;;;;;;;4971567;28;20798;-89
2023/05/06 12:11:27;;;;;;;2.77;2.20;;;;;;;;;;4938924;29;20520;-91
2023/05/06 12:13:53;;;;;;;2.83;2.33;;;;;;;;;;4957354;28;20444;-92
2023/05/06 12:16:22;;;;;;;3.00;2.20;;;;;;;;;;4994429;28;20894;-91
2023/05/06 12:18:49;;;;;;;3.80;2.40;;;;;;;;;;4961115;28;21116;-91
2023/05/06 12:21:15;;;;;;;2.90;2.50;;;;;;;;;;4942858;28;20439;-90
2023/05/06 12:23:51;;;;;;;2.60;2.03;;;;;;;;;;4941474;29;20443;-90
2023/05/06 12:26:18;;;;;;;2.40;2.03;;;;;;;;;;4974992;28;20554;-91
2023/05/06 12:28:45;;;;;;;4.90;2.50;;;;;;;;;;4973759;28;20443;-91
2023/05/06 12:31:17;;;;;;;4.20;3.00;;;;;;;;;;4972491;28;20552;-91
2023/05/06 12:33:45;;;;;;;2.47;2.27;;;;;;;;;;4952007;28;20552;-91
2023/05/06 12:36:12;;;;;;;4.37;2.90;;;;;;;;;;4973185;28;20445;-91
2023/05/06 12:38:38;;;;;;;7.20;2.53;;;;;;;;;;4953095;28;20426;-91
2023/05/06 12:41:05;;;;;;;3.40;2.63;;;;;;;;;;4951202;28;20446;-90
2023/05/06 12:43:31;;;;;;;5.40;2.30;;;;;;;;;;4954713;28;20515;-90
2023/05/06 12:46:04;;;;;;;6.90;3.07;;;;;;;;;;4973300;28;20442;-91
2023/05/06 12:48:30;;;;;;;3.33;1.77;;;;;;;;;;4969834;28;21031;-90
2023/05/06 12:51:03;;;;;;;2.80;2.00;;;;;;;;;;4962103;28;20478;-95
2023/05/06 12:53:38;;;;;;;2.73;1.93;;;;;;;;;;4970399;28;20423;-95
2023/05/06 12:56:04;;;;;;;4.43;2.37;;;;;;;;;;4979855;28;20430;-94
2023/05/06 12:58:36;;;;;;;2.70;1.93;;;;;;;;;;4980107;28;20419;-95
2023/05/06 13:01:02;;;;;;;5.53;2.30;;;;;;;;;;4964811;28;20415;-93
2023/05/06 13:03:28;;;;;;;2.80;2.20;;;;;;;;;;4963949;28;20509;-94
2023/05/06 13:05:55;;;;;;;3.50;2.27;;;;;;;;;;4975640;28;20501;-94
2023/05/06 13:08:21;;;;;;;2.90;2.00;;;;;;;;;;4968730;28;20450;-90
2023/05/06 13:10:47;;;;;;;2.97;2.23;;;;;;;;;;4936487;29;20470;-89
2023/05/06 13:13:13;;;;;;;3.23;2.73;;;;;;;;;;4926172;28;20435;-91
2023/05/06 13:15:40;;;;;;;2.73;2.17;;;;;;;;;;4940385;29;20954;-89
2023/05/06 13:18:06;;;;;;;9.30;2.60;;;;;;;;;;4969546;28;20439;-89
2023/05/06 13:20:32;;;;;;;3.20;2.37;;;;;;;;;;4927254;29;20443;-92
2023/05/06 13:23:02;;;;;;;3.40;3.10;;;;;;;;;;4929727;29;20420;-92
2023/05/06 13:25:28;;;;;;;3.10;2.63;;;;;;;;;;4948717;29;20457;-89
2023/05/06 13:27:54;;;;;;;3.57;2.47;;;;;;;;;;4943886;29;20446;-89
2023/05/06 13:30:20;;;;;;;4.20;2.40;;;;;;;;;;4979634;28;20458;-90
2023/05/06 13:32:47;;;;;;;3.80;2.37;;;;;;;;;;4933360;29;20411;-90
2023/05/06 13:35:16;;;;;;;2.40;2.13;;;;;;;;;;4976254;28;20872;-91
2023/05/06 13:37:43;;;;;;;4.60;2.30;;;;;;;;;;4936439;29;20434;-93
2023/05/06 13:40:09;;;;;;;3.23;2.47;;;;;;;;;;4931470;29;20535;-93
2023/05/06 13:45:12;;;;;;;2.60;2.00;;;;;;;;;;5150330;23;20495;-89
2023/05/06 13:47:43;;;;;;;3.13;2.27;;;;;;;;;;4982175;28;20433;-90
2023/05/06 13:50:09;;;;;;;3.03;1.90;;;;;;;;;;4981508;28;20523;-88
2023/05/06 13:52:35;;;;;;;3.37;2.37;;;;;;;;;;4982167;28;20464;-90
2023/05/06 13:55:02;;;;;;;3.27;2.40;;;;;;;;;;5000539;28;20433;-89
2023/05/06 13:57:28;;;;;;;2.70;2.10;;;;;;;;;;4982482;28;20438;-88
2023/05/06 13:59:54;;;;;;;2.60;2.13;;;;;;;;;;4985906;28;20799;-88
2023/05/06 14:02:20;;;;;;;2.57;2.10;;;;;;;;;;4979873;28;20444;-87
2023/05/06 14:04:46;;;;;;;4.50;2.10;;;;;;;;;;4980574;28;20437;-89
2023/05/06 14:07:12;;;;;;;2.60;2.00;;;;;;;;;;4999854;28;20444;-89
2023/05/06 14:09:38;;;;;;;7.10;2.60;;;;;;;;;;4979895;28;20437;-89
2023/05/06 14:12:04;;;;;;;3.73;1.70;;;;;;;;;;4979948;28;20467;-89
2023/05/06 14:14:30;;;;;;;2.50;2.00;;;;;;;;;;4999929;28;20467;-89
2023/05/06 14:16:56;;;;;;;4.90;2.30;;;;;;;;;;4969125;28;20512;-88
2023/05/06 14:19:23;;;;;;;3.27;2.43;;;;;;;;;;4985133;28;20449;-89
2023/05/06 14:21:50;;;;;;;3.57;2.40;;;;;;;;;;4996337;28;20443;-90
2023/05/06 14:24:20;;;;;;;8.93;2.63;;;;;;;;;;4968917;28;20433;-89
2023/05/06 14:26:46;;;;;;;3.10;1.90;;;;;;;;;;4999292;28;20448;-87
2023/05/06 14:29:13;;;;;;;3.87;2.37;;;;;;;;;;4983148;28;20529;-89
2023/05/06 14:31:39;;;;;;;4.67;2.30;;;;;;;;;;4985251;28;20479;-87
2023/05/06 14:34:05;;;;;;;2.50;2.27;;;;;;;;;;4987717;28;20441;-88
2023/05/06 14:36:31;;;;;;;3.30;2.00;;;;;;;;;;4972619;28;20444;-88
2023/05/06 14:38:57;;;;;;;2.63;2.03;;;;;;;;;;4982242;28;20436;-90
2023/05/06 14:41:23;;;;;;;4.20;2.10;;;;;;;;;;4980856;28;20531;-89
2023/05/06 14:43:49;;;;;;;3.00;2.30;;;;;;;;;;4982287;28;20461;-90
2023/05/06 14:46:16;;;;;;;2.83;2.03;;;;;;;;;;4960704;28;21258;-88
2023/05/06 14:48:43;;;;;;;3.97;2.30;;;;;;;;;;4981734;28;20429;-90
2023/05/06 14:51:11;;;;;;;3.30;1.73;;;;;;;;;;4969800;28;20462;-89
2023/05/06 14:53:38;;;;;;;2.57;1.80;;;;;;;;;;4979933;28;20756;-88
2023/05/06 14:56:04;;;;;;;2.67;1.93;;;;;;;;;;4981145;28;20559;-88
2023/05/06 14:58:30;;;;;;;3.00;2.10;;;;;;;;;;4979984;28;20438;-89
2023/05/06 15:00:56;;;;;;;2.20;1.73;;;;;;;;;;4998560;28;20791;-89
2023/05/06 15:03:22;;;;;;;2.63;1.57;;;;;;;;;;4984049;28;20427;-90